WXM80 ListenWXM80 Stop

You find our weather info also at:

UK Metoffice

WeatherCloud

Weather Underground

Northeastern Weather Network

AWEKAS

Citizen Weather Observer Program (CWOP)

HAMweather, WeatherForYou, PWS Weather


Weather Underground History page Text

Daily Summary for October 8, 2017 Units:  Metric    English   Both
« Previous Day
Next Day »
Daily Weekly Monthly Yearly Custom
  High: Low: Average:
Temperature: 24.5 °C 21.8 °C 22.9 °C
Dew Point: 23.4 °C 19.9 °C 21.8 °C
Humidity: 97 % 88 % 93 %
Wind Speed: 10 km/h 0 km/h 3.4 km/h
Wind Gust: 22.2 km/h - -
Wind:- - SSW
Pressure: 1015.1 hPa 1009.7 hPa -
Precipitation: 6.1 mm    
Historical Graphs
 
 
Tabular Data for October 8, 2017
Time Temperature Dew Point Pressure Wind Wind Speed Wind Gust Humidity Rainfall Rate (Hourly)
00:01 21.8 °C 19.9 °C 1015.1 hPa SSE 5.8 km/h 5.8 km/h 89 % 0 mm
00:11 21.8 °C 19.9 °C 1015.1 hPa South 2.7 km/h 6.4 km/h 89 % 0 mm
00:16 21.8 °C 19.9 °C 1015.1 hPa SSW 1.1 km/h 5.6 km/h 89 % 0 mm
00:21 21.8 °C 19.9 °C 1015.1 hPa South 2.6 km/h 5.6 km/h 89 % 0 mm
00:31 21.8 °C 19.9 °C 1014.8 hPa SSE 1.3 km/h 7.4 km/h 89 % 0 mm
00:36 21.9 °C 20 °C 1014.8 hPa South 3.9 km/h 7.4 km/h 89 % 0 mm
00:41 21.9 °C 20 °C 1014.4 hPa South 2.9 km/h 7.4 km/h 89 % 0 mm
00:46 21.9 °C 20.1 °C 1014.8 hPa SW 4.2 km/h 8 km/h 89 % 0 mm
00:51 21.9 °C 20.1 °C 1014.8 hPa SSW 1.9 km/h 5.6 km/h 89 % 0 mm
00:56 21.9 °C 20.1 °C 1014.8 hPa SE 3.7 km/h 6.4 km/h 89 % 0 mm
01:01 22 °C 20.1 °C 1014.8 hPa SSW 4.7 km/h 9.3 km/h 89 % 0 mm
01:06 22.1 °C 20.2 °C 1014.8 hPa SSW 3.7 km/h 7.4 km/h 89 % 0 mm
01:11 22.1 °C 20.2 °C 1014.8 hPa SSW 3.4 km/h 7.4 km/h 89 % 0 mm
01:16 22.2 °C 20.3 °C 1014.8 hPa SSW 4.2 km/h 8 km/h 89 % 0 mm
01:21 22.2 °C 20.3 °C 1014.8 hPa South 2.6 km/h 5.6 km/h 89 % 0 mm
01:26 22.2 °C 20.1 °C 1014.8 hPa South 3.1 km/h 5.6 km/h 88 % 0 mm
01:31 22.3 °C 20.2 °C 1014.8 hPa South 4.2 km/h 14.5 km/h 88 % 0 mm
01:36 22.3 °C 20.2 °C 1014.8 hPa SSW 7.1 km/h 17.7 km/h 88 % 0 mm
01:41 22.3 °C 20.2 °C 1014.8 hPa South 10 km/h 13 km/h 88 % 0 mm
01:46 22.4 °C 20.3 °C 1014.4 hPa SSW 3.7 km/h 11.1 km/h 88 % 0 mm
01:51 22.4 °C 20.3 °C 1014.8 hPa SW 7.6 km/h 11.1 km/h 88 % 0 mm
01:56 22.4 °C 20.3 °C 1014.8 hPa SSW 5.8 km/h 14.8 km/h 88 % 0 mm
02:01 22.5 °C 20.4 °C 1014.4 hPa SW 2.7 km/h 9.3 km/h 88 % 0 mm
02:06 22.5 °C 20.4 °C 1014.4 hPa SE 6.8 km/h 18.5 km/h 88 % 0 mm
02:11 22.5 °C 20.4 °C 1014.4 hPa South 5.5 km/h 11.1 km/h 88 % 0 mm
02:16 22.5 °C 20.6 °C 1014.4 hPa South 8.7 km/h 14.5 km/h 89 % 0 mm
02:22 22.6 °C 20.7 °C 1014.4 hPa SSE 3.4 km/h 9.7 km/h 89 % 0 mm
02:27 22.5 °C 20.6 °C 1014.1 hPa SSW 6.6 km/h 16.7 km/h 89 % 0 mm
02:32 22.6 °C 20.7 °C 1014.1 hPa SE 2.4 km/h 9.3 km/h 89 % 0 mm
02:42 22.5 °C 20.6 °C 1014.1 hPa ESE 5.8 km/h 7.4 km/h 89 % 0 mm
02:47 22.5 °C 20.6 °C 1014.1 hPa WSW 4.5 km/h 14.5 km/h 89 % 0 mm
02:52 22.5 °C 20.6 °C 1014.1 hPa ESE 2.3 km/h 5.6 km/h 89 % 0 mm
02:57 22.5 °C 20.6 °C 1013.8 hPa SSW 2.9 km/h 9.3 km/h 89 % 0 mm
03:02 22.4 °C 20.6 °C 1014.1 hPa SSW 6.1 km/h 11.1 km/h 89 % 0 mm
03:07 22.4 °C 20.6 °C 1014.1 hPa South 2.4 km/h 9.3 km/h 89 % 0 mm
03:12 22.5 °C 20.6 °C 1013.8 hPa SSE 5.5 km/h 14.8 km/h 89 % 0 mm
03:17 22.5 °C 20.8 °C 1014.1 hPa SSE 4.5 km/h 11.1 km/h 90 % 0 mm
03:22 22.5 °C 20.8 °C 1013.8 hPa SSW 6.3 km/h 11.1 km/h 90 % 0 mm
03:27 22.4 °C 20.7 °C 1013.8 hPa SE 4.5 km/h 14.8 km/h 90 % 0 mm
03:32 22.4 °C 20.7 °C 1013.8 hPa SSW 2.9 km/h 5.6 km/h 90 % 0 mm
03:37 22.5 °C 20.8 °C 1013.8 hPa SSW 4.2 km/h 18.5 km/h 90 % 0 mm
03:42 22.5 °C 20.8 °C 1013.8 hPa SSW 7.4 km/h 14.8 km/h 90 % 0 mm
03:47 22.5 °C 20.8 °C 1013.8 hPa SW 3.9 km/h 14.5 km/h 90 % 0 mm
03:52 22.5 °C 20.8 °C 1013.8 hPa SSW 6 km/h 9.3 km/h 90 % 0 mm
03:57 22.6 °C 20.8 °C 1013.4 hPa SE 6.4 km/h 9.3 km/h 90 % 0 mm
04:02 22.6 °C 21 °C 1013.4 hPa South 4.8 km/h 6.4 km/h 91 % 0 mm
04:07 22.6 °C 21 °C 1013.4 hPa South 7.7 km/h 9.3 km/h 91 % 0 mm
04:13 22.6 °C 21 °C 1013.4 hPa SE 4.8 km/h 7.4 km/h 91 % 0 mm
04:18 22.5 °C 20.9 °C 1013.4 hPa South 4.3 km/h 13 km/h 91 % 0 mm
04:23 22.5 °C 20.9 °C 1013.4 hPa SSE 5 km/h 13 km/h 91 % 0 mm
04:28 22.4 °C 20.9 °C 1013.4 hPa SSE 8.4 km/h 13 km/h 91 % 0 mm
04:33 22.4 °C 20.9 °C 1013.4 hPa SW 3.9 km/h 7.4 km/h 91 % 0 mm
04:38 22.4 °C 20.9 °C 1013.1 hPa South 4.7 km/h 9.7 km/h 91 % 0 mm
04:43 22.4 °C 20.9 °C 1013.1 hPa South 6.6 km/h 13 km/h 91 % 0 mm
04:48 22.4 °C 21 °C 1013.1 hPa SSW 7.9 km/h 13 km/h 92 % 0 mm
04:53 22.4 °C 21 °C 1013.1 hPa South 5 km/h 9.3 km/h 92 % 0 mm
04:58 22.4 °C 21 °C 1013.1 hPa SW 2.3 km/h 5.6 km/h 92 % 0 mm
05:03 22.3 °C 20.9 °C 1013.1 hPa South 4.3 km/h 13 km/h 92 % 0 mm
05:08 22.3 °C 20.9 °C 1012.8 hPa SSE 4.5 km/h 7.4 km/h 92 % 0 mm
05:13 22.3 °C 20.9 °C 1012.8 hPa SSE 3.7 km/h 13 km/h 92 % 0 mm
05:18 22.3 °C 20.9 °C 1012.8 hPa South 5.1 km/h 9.3 km/h 92 % 0 mm
05:23 22.3 °C 20.9 °C 1012.8 hPa South 4.5 km/h 14.8 km/h 92 % 0 mm
05:28 22.3 °C 20.9 °C 1012.8 hPa South 1.8 km/h 5.6 km/h 92 % 0 mm
05:33 22.3 °C 20.9 °C 1012.8 hPa SW 1.8 km/h 7.4 km/h 92 % 0 mm
05:38 22.3 °C 20.9 °C 1012.8 hPa South 7.1 km/h 18.5 km/h 92 % 0 mm
05:43 22.3 °C 20.9 °C 1012.8 hPa SSE 1.3 km/h 7.4 km/h 92 % 0 mm
05:48 22.3 °C 20.9 °C 1012.8 hPa South 4.7 km/h 11.1 km/h 92 % 0 mm
05:53 22.3 °C 20.9 °C 1012.8 hPa SSW 2.1 km/h 14.8 km/h 92 % 0 mm
05:59 22.3 °C 20.9 °C 1012.8 hPa SSW 3.9 km/h 9.3 km/h 92 % 0 mm
06:04 22.3 °C 20.9 °C 1012.8 hPa SW 3.5 km/h 9.3 km/h 92 % 0 mm
06:09 22.3 °C 20.9 °C 1012.8 hPa South 5.3 km/h 9.3 km/h 92 % 0 mm
06:19 22.3 °C 20.9 °C 1012.4 hPa SE 5.8 km/h 13 km/h 92 % 0 mm
06:24 22.3 °C 20.9 °C 1012.8 hPa SSW 5.5 km/h 16.1 km/h 92 % 0 mm
06:29 22.4 °C 20.8 °C 1012.4 hPa SSW 8.7 km/h 18.5 km/h 91 % 0 mm
06:34 22.4 °C 20.8 °C 1012.4 hPa SSW 1.3 km/h 13 km/h 91 % 0 mm
06:39 22.4 °C 20.9 °C 1012.4 hPa SSW 1.1 km/h 9.3 km/h 91 % 0 mm
06:44 22.4 °C 20.9 °C 1012.1 hPa South 8 km/h 22.2 km/h 91 % 0 mm
06:49 22.4 °C 20.9 °C 1012.1 hPa SSE 1.9 km/h 9.3 km/h 91 % 0 mm
06:54 22.4 °C 20.9 °C 1012.1 hPa South 1.9 km/h 11.1 km/h 91 % 0 mm
06:59 22.4 °C 20.9 °C 1012.4 hPa SW 2.1 km/h 7.4 km/h 91 % 0 mm
07:04 22.4 °C 20.9 °C 1012.4 hPa SSE 5.8 km/h 14.8 km/h 91 % 0 mm
07:09 22.4 °C 20.9 °C 1012.4 hPa SW 3.2 km/h 8 km/h 91 % 0 mm
07:14 22.4 °C 20.9 °C 1012.4 hPa SE 4.8 km/h 7.4 km/h 91 % 0 mm
07:19 22.4 °C 20.9 °C 1012.4 hPa WSW 2.7 km/h 9.7 km/h 91 % 0 mm
07:24 22.4 °C 20.9 °C 1012.1 hPa SSW 7.7 km/h 17.7 km/h 91 % 0 mm
07:29 22.4 °C 20.9 °C 1012.1 hPa SE 6 km/h 11.1 km/h 91 % 0 mm
07:34 22.4 °C 20.9 °C 1012.1 hPa SSW 4 km/h 9.3 km/h 91 % 0 mm
07:39 22.4 °C 20.9 °C 1012.1 hPa SSE 4.3 km/h 7.4 km/h 91 % 0 mm
07:40 22.4 °C 20.9 °C 1012.1 hPa ESE 1.9 km/h 7.4 km/h 91 % 0 mm
07:45 22.5 °C 20.9 °C 1012.1 hPa SW 8.5 km/h 16.1 km/h 91 % 0 mm
07:50 22.6 °C 21 °C 1012.4 hPa SSW 5.8 km/h 12.9 km/h 91 % 0 mm
07:55 22.6 °C 21 °C 1012.1 hPa South 1.6 km/h 13 km/h 91 % 0 mm
08:05 22.7 °C 21.1 °C 1012.4 hPa SW 7.1 km/h 13 km/h 91 % 0 mm
08:11 22.7 °C 21.2 °C 1012.4 hPa SSW 4.5 km/h 14.8 km/h 91 % 0 mm
08:16 22.8 °C 21.2 °C 1012.4 hPa SSW 5.6 km/h 9.3 km/h 91 % 0 mm
08:21 22.8 °C 21.2 °C 1012.4 hPa SSW 4.7 km/h 11.1 km/h 91 % 0 mm
08:26 22.8 °C 21.3 °C 1012.1 hPa SSW 6.6 km/h 11.1 km/h 91 % 0 mm
08:30 22.8 °C 21.3 °C 1012.1 hPa South 4.3 km/h 9.3 km/h 91 % 0 mm
08:35 22.8 °C 21.3 °C 1012.1 hPa SSW 4.8 km/h 8 km/h 91 % 0 mm
08:40 22.8 °C 21.3 °C 1012.1 hPa SW 5.1 km/h 13 km/h 91 % 0.25 mm
08:46 22.8 °C 21.2 °C 1012.1 hPa South 9.7 km/h 19.3 km/h 91 % 0 mm
08:51 22.7 °C 21.3 °C 1012.1 hPa South 1.6 km/h 9.7 km/h 92 % 0.25 mm
08:56 22.6 °C 21.2 °C 1012.1 hPa SSW 8 km/h 14.5 km/h 92 % 0 mm
09:01 22.4 °C 21.3 °C 1011.7 hPa SSW 5 km/h 6.4 km/h 93 % 1.27 mm
09:06 22.4 °C 21.2 °C 1012.1 hPa South 5.1 km/h 5.6 km/h 93 % 1.52 mm
09:11 22.3 °C 21.1 °C 1011.7 hPa SSW 5.1 km/h 13 km/h 93 % 1.52 mm
09:16 22.2 °C 21.2 °C 1011.7 hPa SE 2.1 km/h 7.4 km/h 94 % 1.78 mm
09:18 22.2 °C 21.2 °C 1011.7 hPa South 8.4 km/h 11.1 km/h 94 % 1.78 mm
09:23 22.1 °C 21.1 °C 1012.1 hPa South 5.6 km/h 16.7 km/h 94 % 1.78 mm
09:28 22.1 °C 21.1 °C 1012.1 hPa SW 6.1 km/h 11.1 km/h 94 % 2.03 mm
09:33 22.1 °C 21.1 °C 1012.1 hPa South 6.3 km/h 13 km/h 94 % 2.29 mm
09:38 22 °C 21.2 °C 1012.1 hPa SSW 6.6 km/h 22.2 km/h 95 % 2.29 mm
09:43 21.9 °C 21.1 °C 1011.7 hPa SW 8 km/h 16.1 km/h 95 % 2.54 mm
09:48 21.9 °C 21.1 °C 1011.7 hPa South 6.8 km/h 13 km/h 95 % 2.54 mm
09:53 21.8 °C 21 °C 1011.7 hPa SSW 3.1 km/h 18.5 km/h 95 % 2.54 mm
09:59 21.8 °C 21 °C 1011.7 hPa South 5.5 km/h 9.3 km/h 95 % 2.54 mm
10:04 21.8 °C 21 °C 1011.4 hPa South 4 km/h 14.8 km/h 95 % 2.79 mm
10:09 21.8 °C 21.2 °C 1011.4 hPa SW 2.3 km/h 9.3 km/h 96 % 2.54 mm
10:14 21.8 °C 21.2 °C 1011.4 hPa South 5 km/h 11.1 km/h 96 % 2.79 mm
10:19 21.9 °C 21.2 °C 1011.4 hPa South 3.4 km/h 7.4 km/h 96 % 2.79 mm
10:24 21.8 °C 21.2 °C 1011.4 hPa SSW 5.8 km/h 13 km/h 96 % 3.05 mm
10:34 21.8 °C 21.2 °C 1011.4 hPa SSW 9.3 km/h 13 km/h 96 % 2.54 mm
10:39 21.9 °C 21.2 °C 1011.4 hPa SSW 3.7 km/h 6.4 km/h 96 % 2.79 mm
10:44 21.9 °C 21.3 °C 1011.4 hPa South 5.8 km/h 18.5 km/h 96 % 2.54 mm
10:49 21.9 °C 21.3 °C 1011.7 hPa SSW 9 km/h 20.4 km/h 96 % 2.54 mm
10:54 22 °C 21.3 °C 1011.7 hPa SSW 5.1 km/h 11.3 km/h 96 % 2.03 mm
10:59 22.1 °C 21.4 °C 1011.7 hPa WSW 4.3 km/h 11.1 km/h 96 % 1.78 mm
11:05 22.1 °C 21.4 °C 1011.7 hPa SSW 4.7 km/h 11.1 km/h 96 % 1.78 mm
11:10 22.1 °C 21.6 °C 1012.1 hPa WSW 4.7 km/h 11.1 km/h 97 % 1.52 mm
11:15 22.1 °C 21.6 °C 1012.1 hPa SW 3.7 km/h 6.4 km/h 97 % 1.52 mm
11:20 22.2 °C 21.7 °C 1011.7 hPa SSW 1.3 km/h 5.6 km/h 97 % 1.27 mm
11:25 22.2 °C 21.7 °C 1012.1 hPa SSW 5.5 km/h 14.8 km/h 97 % 1.02 mm
11:30 22.2 °C 21.7 °C 1012.1 hPa SW 2.1 km/h 11.1 km/h 97 % 0.76 mm
11:35 22.2 °C 21.7 °C 1011.7 hPa South 6 km/h 12.9 km/h 97 % 0.76 mm
11:40 22.2 °C 21.7 °C 1011.7 hPa South 1.9 km/h 7.4 km/h 97 % 0.51 mm
11:45 22.2 °C 21.6 °C 1011.7 hPa SSW 3.9 km/h 9.7 km/h 96 % 0.51 mm
11:50 22.3 °C 21.6 °C 1011.7 hPa SSW 3.2 km/h 9.3 km/h 96 % 0.25 mm
11:55 22.3 °C 21.6 °C 1011.7 hPa SW 3.1 km/h 14.5 km/h 96 % 0.25 mm
12:00 22.3 °C 21.7 °C 1011.7 hPa SSW 4.5 km/h 12.9 km/h 96 % 0.25 mm
12:05 22.3 °C 21.8 °C 1011.7 hPa SW 2.3 km/h 11.1 km/h 97 % 0 mm
12:10 22.4 °C 21.9 °C 1011.7 hPa NNW 1.4 km/h 7.4 km/h 97 % 0 mm
12:15 22.5 °C 22 °C 1011.7 hPa SSW 1 km/h 3.7 km/h 97 % 0.25 mm
12:20 22.6 °C 22.1 °C 1011.7 hPa West 2.7 km/h 8 km/h 97 % 0.25 mm
12:25 22.7 °C 22.2 °C 1011.7 hPa SSW 4.5 km/h 9.3 km/h 97 % 0.25 mm
12:30 22.7 °C 22.2 °C 1011.7 hPa SSW 6.1 km/h 9.7 km/h 97 % 0.25 mm
12:40 22.9 °C 22.4 °C 1011.7 hPa South 1 km/h 4.8 km/h 97 % 0.25 mm
12:45 23 °C 22.5 °C 1011.7 hPa SSE 0.3 km/h 3.7 km/h 97 % 0.25 mm
12:50 23.1 °C 22.6 °C 1012.1 hPa South 2.3 km/h 5.6 km/h 97 % 0.25 mm
12:55 23.2 °C 22.7 °C 1011.7 hPa SSW 6 km/h 7.4 km/h 97 % 0.25 mm
13:00 23.2 °C 22.7 °C 1011.7 hPa SSW 6.1 km/h 8 km/h 97 % 0.25 mm
13:06 23.3 °C 22.8 °C 1011.7 hPa SSW 3.2 km/h 11.3 km/h 97 % 0 mm
13:11 23.3 °C 22.8 °C 1011.7 hPa SSW 1.6 km/h 19.3 km/h 97 % 0 mm
13:21 23.4 °C 22.8 °C 1011.7 hPa SSW 4.5 km/h 9.3 km/h 96 % 0 mm
13:26 23.4 °C 22.8 °C 1011.4 hPa SSE 0.8 km/h 5.6 km/h 96 % 0 mm
13:31 23.5 °C 22.8 °C 1011.4 hPa SSE 2.6 km/h 7.4 km/h 96 % 0 mm
13:36 23.6 °C 22.9 °C 1011.4 hPa SSE 1 km/h 5.6 km/h 96 % 0 mm
13:46 23.6 °C 22.9 °C 1011.1 hPa South 2.9 km/h 5.6 km/h 96 % 0 mm
13:51 23.7 °C 23 °C 1011.1 hPa SSW 3.2 km/h 5.6 km/h 96 % 0 mm
13:56 23.7 °C 23.1 °C 1011.1 hPa SW 2.7 km/h 9.3 km/h 96 % 0 mm
14:01 23.7 °C 22.9 °C 1011.1 hPa SSW 1.4 km/h 5.6 km/h 95 % 0 mm
14:06 23.8 °C 22.9 °C 1011.1 hPa SE 1.3 km/h 9.3 km/h 95 % 0 mm
14:11 23.8 °C 22.9 °C 1011.1 hPa SSW 1 km/h 3.7 km/h 95 % 0 mm
14:16 23.8 °C 22.9 °C 1011.1 hPa SSW 2.1 km/h 11.1 km/h 95 % 0 mm
14:21 23.8 °C 22.9 °C 1011.4 hPa SSW 5 km/h 9.3 km/h 95 % 0 mm
14:26 23.8 °C 23 °C 1011.1 hPa SW 3.7 km/h 9.3 km/h 95 % 0 mm
14:31 23.9 °C 23.1 °C 1011.1 hPa South 7.1 km/h 12.9 km/h 95 % 0 mm
14:36 23.9 °C 23.1 °C 1011.1 hPa SSW 2.3 km/h 8 km/h 95 % 0 mm
14:41 24 °C 23.2 °C 1011.1 hPa SW 2.1 km/h 8 km/h 95 % 0 mm
14:46 24.1 °C 23.3 °C 1011.1 hPa South 4.7 km/h 13 km/h 95 % 0 mm
14:51 24.2 °C 23.3 °C 1011.1 hPa South 3.2 km/h 7.4 km/h 95 % 0 mm
14:56 24.2 °C 23.4 °C 1011.1 hPa SSW 6 km/h 11.1 km/h 95 % 0 mm
15:01 24.3 °C 23.3 °C 1011.1 hPa WSW 2.7 km/h 4.8 km/h 94 % 0 mm
15:06 24.4 °C 23.3 °C 1011.1 hPa SW 5 km/h 8 km/h 94 % 0 mm
15:11 24.4 °C 23.2 °C 1011.4 hPa South 0.2 km/h 5.6 km/h 93 % 0 mm
15:16 24.4 °C 23.2 °C 1011.1 hPa WSW 4 km/h 5.6 km/h 93 % 0 mm
15:21 24.5 °C 23.3 °C 1011.4 hPa SSW 1.1 km/h 5.6 km/h 93 % 0 mm
15:26 24.4 °C 23.2 °C 1011.1 hPa South 1.8 km/h 6.4 km/h 93 % 0 mm
15:31 24.4 °C 23.1 °C 1011.1 hPa SSW 4 km/h 5.6 km/h 92 % 0 mm
15:36 24.4 °C 23.1 °C 1011.1 hPa SSW 4.5 km/h 8 km/h 92 % 0 mm
15:41 24.4 °C 23.1 °C 1011.1 hPa SW 0.6 km/h 5.6 km/h 92 % 0 mm
15:46 24.4 °C 23.1 °C 1011.1 hPa SSW 4.5 km/h 6.4 km/h 92 % 0 mm
15:51 24.4 °C 23.1 °C 1011.4 hPa WSW 2.7 km/h 7.4 km/h 92 % 0 mm
15:56 24.4 °C 23.1 °C 1011.1 hPa SSW 4 km/h 7.4 km/h 92 % 0 mm
16:01 24.4 °C 23.1 °C 1011.1 hPa ESE 1.9 km/h 5.6 km/h 92 % 0 mm
16:06 24.4 °C 23.1 °C 1011.1 hPa SSW 4.3 km/h 9.3 km/h 92 % 0 mm
16:11 24.4 °C 23 °C 1011.1 hPa South 1.3 km/h 14.8 km/h 92 % 0 mm
16:16 24.4 °C 23 °C 1011.1 hPa SSW 1.9 km/h 5.6 km/h 92 % 0 mm
16:22 24.3 °C 22.9 °C 1011.1 hPa SW 0.2 km/h 3.7 km/h 92 % 0 mm
16:27 24.3 °C 22.9 °C 1011.1 hPa SSW 0.6 km/h 5.6 km/h 92 % 0 mm
16:32 24.3 °C 22.9 °C 1011.1 hPa SSW 3.9 km/h 11.1 km/h 92 % 0 mm
16:37 24.3 °C 22.9 °C 1010.7 hPa SSW 4 km/h 9.3 km/h 92 % 0 mm
16:42 24.2 °C 22.8 °C 1011.1 hPa SW 3.9 km/h 5.6 km/h 92 % 0 mm
16:47 24.2 °C 22.8 °C 1011.1 hPa SSW 4.3 km/h 7.4 km/h 92 % 0 mm
16:52 24.2 °C 22.8 °C 1011.1 hPa SSW 1.9 km/h 5.6 km/h 92 % 0 mm
16:57 24.2 °C 22.8 °C 1011.1 hPa SSW 1.3 km/h 3.7 km/h 92 % 0 mm
17:02 24.1 °C 22.7 °C 1011.1 hPa SSW 2.6 km/h 5.6 km/h 92 % 0 mm
17:07 24.1 °C 22.7 °C 1011.1 hPa SSE 1.3 km/h 5.6 km/h 92 % 0 mm
17:12 24.1 °C 22.7 °C 1011.1 hPa South 0.5 km/h 5.6 km/h 92 % 0 mm
17:17 24.1 °C 22.8 °C 1011.1 hPa SSW 1.9 km/h 5.6 km/h 93 % 0 mm
17:22 24 °C 22.8 °C 1011.4 hPa SSW 1.9 km/h 9.3 km/h 93 % 0 mm
17:27 24 °C 22.8 °C 1011.4 hPa SW 1.1 km/h 3.2 km/h 93 % 0 mm
17:32 23.9 °C 22.7 °C 1011.4 hPa SSW 2.7 km/h 6.4 km/h 93 % 0 mm
17:37 23.9 °C 22.7 °C 1011.4 hPa SE 3.4 km/h 5.6 km/h 93 % 0 mm
17:42 23.9 °C 22.7 °C 1011.7 hPa South 1.6 km/h 5.6 km/h 93 % 0 mm
17:47 23.9 °C 22.7 °C 1011.7 hPa Calm   3.7 km/h 93 % 0 mm
17:53 23.8 °C 22.6 °C 1011.7 hPa West 1.3 km/h 1.9 km/h 93 % 0 mm
17:58 23.8 °C 22.6 °C 1011.7 hPa West 4.5 km/h 11.1 km/h 93 % 0 mm
18:08 23.8 °C 22.6 °C 1012.1 hPa WSW 0.8 km/h 3.7 km/h 93 % 0 mm
18:13 23.7 °C 22.5 °C 1012.1 hPa SSW 1.4 km/h 5.6 km/h 93 % 0 mm
18:18 23.7 °C 22.4 °C 1012.1 hPa SSW 3.4 km/h 5.6 km/h 93 % 0 mm
18:23 23.7 °C 22.4 °C 1012.1 hPa SW 0.5 km/h 1.9 km/h 93 % 0 mm
18:28 23.6 °C 22.4 °C 1012.4 hPa SW 1 km/h 5.6 km/h 93 % 0 mm
18:33 23.6 °C 22.6 °C 1012.4 hPa SW 0.6 km/h 3.7 km/h 94 % 0 mm
18:38 23.6 °C 22.6 °C 1012.4 hPa SW 1.6 km/h 3.7 km/h 94 % 0 mm
18:43 23.5 °C 22.5 °C 1012.4 hPa SW 1 km/h 5.6 km/h 94 % 0 mm
18:48 23.4 °C 22.4 °C 1012.4 hPa SW 1.1 km/h 5.6 km/h 94 % 0 mm
18:53 23.4 °C 22.4 °C 1012.4 hPa SW 0.2 km/h 5.6 km/h 94 % 0 mm
18:55 23.4 °C 22.4 °C 1012.4 hPa SSW 2.1 km/h 5.6 km/h 94 % 0 mm
19:00 23.4 °C 22.4 °C 1012.4 hPa SSW 3.2 km/h 7.4 km/h 94 % 0 mm
19:05 23.4 °C 22.4 °C 1012.4 hPa West 2.1 km/h 5.6 km/h 94 % 0 mm
19:15 23.3 °C 22.3 °C 1012.8 hPa SW 0.5 km/h 1.9 km/h 94 % 0 mm
19:20 23.3 °C 22.3 °C 1012.8 hPa SSW 3.1 km/h 6.4 km/h 94 % 0 mm
19:30 23.3 °C 22.3 °C 1012.8 hPa WSW 1.4 km/h 5.6 km/h 94 % 0 mm
19:35 23.3 °C 22.4 °C 1012.8 hPa SW 1.4 km/h 3.7 km/h 95 % 0 mm
19:40 23.3 °C 22.4 °C 1012.8 hPa SW 0.8 km/h 5.6 km/h 95 % 0 mm
19:50 23.2 °C 22.4 °C 1012.8 hPa SW 1.8 km/h 5.6 km/h 95 % 0 mm
19:55 23.2 °C 22.4 °C 1012.8 hPa South 3.4 km/h 5.6 km/h 95 % 0 mm
20:00 23.2 °C 22.4 °C 1012.8 hPa WSW 1.4 km/h 5.6 km/h 95 % 0 mm
20:05 23.2 °C 22.4 °C 1012.8 hPa WSW 1 km/h 3.7 km/h 95 % 0 mm
20:10 23.2 °C 22.4 °C 1013.1 hPa WSW 3.4 km/h 8 km/h 95 % 0 mm
20:15 23.2 °C 22.4 °C 1013.1 hPa WSW 0.3 km/h 3.7 km/h 95 % 0 mm
20:20 23.2 °C 22.4 °C 1013.1 hPa SW 1.1 km/h 5.6 km/h 95 % 0 mm
20:25 23.2 °C 22.3 °C 1012.8 hPa SW 1 km/h 5.6 km/h 95 % 0 mm
20:30 23.2 °C 22.4 °C 1013.1 hPa SW 2.9 km/h 9.3 km/h 95 % 0 mm
20:35 23.2 °C 22.6 °C 1013.1 hPa SW 0.3 km/h 3.7 km/h 96 % 0 mm
20:40 23.2 °C 22.6 °C 1013.1 hPa SSW 2.7 km/h 5.6 km/h 96 % 0 mm
20:45 23.2 °C 22.6 °C 1013.1 hPa WSW 2.4 km/h 6.4 km/h 96 % 0 mm
20:50 23.2 °C 22.6 °C 1013.1 hPa SSW 3.5 km/h 4.8 km/h 96 % 0 mm
20:55 23.2 °C 22.6 °C 1013.1 hPa SE 0.8 km/h 5.6 km/h 96 % 0 mm
21:00 23.3 °C 22.6 °C 1013.1 hPa SW 0.8 km/h 5.6 km/h 96 % 0 mm
21:05 23.3 °C 22.6 °C 1013.4 hPa SSW 0.8 km/h   96 % 0 mm
21:15 23.3 °C 22.6 °C 1013.4 hPa South 4.2 km/h 8 km/h 96 % 0 mm
21:20 23.3 °C 22.6 °C 1013.4 hPa WSW 2.4 km/h 5.6 km/h 96 % 0 mm
21:25 23.3 °C 22.6 °C 1013.4 hPa WSW 1.4 km/h 5.6 km/h 96 % 0 mm
21:30 23.3 °C 22.6 °C 1013.1 hPa WSW 0.6 km/h 7.4 km/h 96 % 0 mm
21:35 23.3 °C 22.6 °C 1013.4 hPa SW 2.1 km/h 5.6 km/h 96 % 0 mm
21:41 23.3 °C 22.7 °C 1013.4 hPa Calm   6.4 km/h 96 % 0 mm
21:42 23.3 °C 22.7 °C 1013.4 hPa WSW 1.3 km/h 4.8 km/h 96 % 0 mm
21:47 23.3 °C 22.7 °C 1013.4 hPa SSW 3.1 km/h 5.6 km/h 96 % 0 mm
21:52 23.3 °C 22.7 °C 1013.4 hPa SW 0.8 km/h 3.7 km/h 96 % 0 mm
22:02 23.4 °C 22.7 °C 1013.4 hPa WSW 0.3 km/h 1.9 km/h 96 % 0 mm
22:07 23.4 °C 22.7 °C 1013.4 hPa SSW 1.8 km/h 5.6 km/h 96 % 0 mm
22:12 23.4 °C 22.7 °C 1013.4 hPa Calm     96 % 0 mm
22:17 23.4 °C 22.7 °C 1013.8 hPa Calm   1.9 km/h 96 % 0 mm
22:22 23.4 °C 22.7 °C 1013.8 hPa SW 1.9 km/h 5.6 km/h 96 % 0 mm
22:27 23.4 °C 22.7 °C 1013.4 hPa SW 0.6 km/h 9.3 km/h 96 % 0 mm
22:32 23.4 °C 22.7 °C 1013.4 hPa Calm   1.6 km/h 96 % 0 mm
22:37 23.4 °C 22.7 °C 1013.8 hPa SW 2.1 km/h 3.7 km/h 96 % 0 mm
22:42 23.3 °C 22.7 °C 1013.8 hPa Calm   1.9 km/h 96 % 0 mm
22:47 23.3 °C 22.7 °C 1013.8 hPa WSW 1.6 km/h 5.6 km/h 96 % 0 mm
22:52 23.4 °C 22.7 °C 1013.8 hPa SW 1.3 km/h 9.3 km/h 96 % 0 mm
22:57 23.4 °C 22.7 °C 1013.8 hPa SW 0.2 km/h 3.7 km/h 96 % 0 mm
23:02 23.4 °C 22.7 °C 1014.1 hPa Calm   3.7 km/h 96 % 0 mm
23:07 23.3 °C 22.7 °C 1014.1 hPa Calm   1.9 km/h 96 % 0 mm
23:14 23.3 °C 22.5 °C 1014.1 hPa Calm   1.9 km/h 95 % 0 mm
23:19 23.3 °C 22.5 °C 1014.1 hPa Calm     95 % 0 mm
23:22 23.3 °C 22.5 °C 1010 hPa Calm   1.9 km/h 95 % 0 mm
23:24 23.3 °C 22.5 °C 1013.8 hPa SW 1.1 km/h 3.7 km/h 95 % 0 mm
23:25 23.3 °C 22.5 °C 1009.7 hPa SW 0.2 km/h 1.9 km/h 95 % 0 mm
23:34 23.3 °C 22.4 °C 1013.8 hPa Calm     95 % 0 mm
23:37 23.3 °C 22.4 °C 1013.8 hPa SW 0.3 km/h 1.9 km/h 95 % 0 mm
23:42 23.3 °C 22.4 °C 1013.8 hPa Calm   1.9 km/h 95 % 0 mm
23:43 23.3 °C 22.4 °C 1013.8 hPa Calm   1.9 km/h 95 % 0 mm
23:48 23.3 °C 22.4 °C 1013.8 hPa Calm     95 % 0 mm
23:53 23.3 °C 22.4 °C 1013.8 hPa Calm     95 % 0 mm
23:58 23.2 °C 22.4 °C 1013.8 hPa Calm   1.9 km/h 95 % 0 mm
Crab Meadow Weather
Compliments of Weather Underground - 3 mb

Script developed by  Jim McMurry - jmcmurry@mwt.net Adapted for the template by  Wim van der Kuil - Leuven-Template.eu

Weather Terms: Tornado Warning - Strong rotation in a thunderstorm is indicated by Doppler radar or a tornado is sighted by skywarn spotters. These warnings are issued on a county by county basis by the local Weather Forecast office in Upton.